Flight Track Log - Related Links

Times and Time Zones

All times are in EDT time to prevent confusion due to time zone crossing. See the N76AD flight status page for this flight to view local times or setup timezone preferences in your user account.


Time Position Orientation Groundspeed Altitude Reporting Facility
EDT Latitude Longitude Course Direction KTS MPH feet Rate Location/Type
Mon 06:19:05 PM 29.1308 -81.0931 232° Southwest 107 123 2,700  Level Jacksonville Center
Mon 06:20:06 PM 29.1144 -81.1172 232° Southwest 100 115 3,400 615 Climbing Jacksonville Center
Mon 06:22:30 PM 29.0833 -81.1833 242° Southwest 91 105 4,800 529 Climbing Orlando TRACON
Mon 06:23:30 PM 29.0833 -81.2000 270° West 92 106 5,200 450 Climbing Orlando TRACON
Mon 06:24:30 PM 29.0833 -81.2333 270° West 92 106 5,700 500 Climbing Orlando TRACON
Mon 06:25:30 PM 29.0667 -81.2500 221° Southwest 88 101 6,200 350 Climbing Orlando TRACON
Mon 06:26:30 PM 29.0500 -81.2833 240° Southwest 92 106 6,400 50 Climbing Orlando TRACON
Mon 06:27:30 PM 29.0333 -81.3000 221° Southwest 108 124 6,300 -100 Descending Orlando TRACON
Mon 06:28:30 PM 29.0000 -81.3333 221° Southwest 104 120 6,200 50 Descending Orlando TRACON
Mon 06:29:30 PM 28.9833 -81.3500 221° Southwest 95 109 6,400 158 Climbing Orlando TRACON
Mon 06:30:24 PM 28.9667 -81.3667 221° Southwest 95 109 6,500 105 Climbing Orlando TRACON
Mon 06:31:24 PM 28.9500 -81.4000 240° Southwest 98 113 6,600  Climbing Orlando TRACON
Mon 06:32:24 PM 28.9333 -81.4167 221° Southwest 105 121 6,500 -105 Descending Orlando TRACON
Mon 06:33:18 PM 28.9167 -81.4333 221° Southwest 110 127 6,400 -100 Descending Orlando TRACON
Mon 06:34:24 PM 28.9000 -81.4667 240° Southwest 107 123 6,300 -48 Descending Orlando TRACON
Mon 06:35:24 PM 28.8833 -81.4833 221° Southwest 101 116 6,300 104 Level Orlando TRACON
Mon 06:36:19 PM 28.8667 -81.5167 240° Southwest 96 110 6,500 52 Climbing Orlando TRACON
Mon 06:37:19 PM 28.8500 -81.5333 221° Southwest 101 116 6,400 -50 Descending Orlando TRACON
Mon 06:38:19 PM 28.8167 -81.5667 221° Southwest 101 116 6,400  Level Orlando TRACON
Mon 06:39:37 PM 28.8000 -81.5833 221° Southwest 99 114 6,400  Level Orlando TRACON
Mon 06:40:19 PM 28.7833 -81.6000 221° Southwest 101 116 6,400  Level Orlando TRACON
Mon 06:41:31 PM 28.7667 -81.6333 240° Southwest 101 116 6,400  Level Orlando TRACON
Mon 06:42:31 PM 28.7333 -81.6500 204° Southwest 97 112 6,400  Level Orlando TRACON
Mon 06:43:25 PM 28.7167 -81.6667 221° Southwest 101 116 6,400 50 Level Orlando TRACON
Mon 06:44:31 PM 28.7000 -81.7000 240° Southwest 100 115 6,500 48 Climbing Orlando TRACON
Mon 06:45:31 PM 28.6833 -81.7167 221° Southwest 103 119 6,500  Level Orlando TRACON
Mon 06:46:31 PM 28.6667 -81.7500 240° Southwest 106 122 6,500  Level Orlando TRACON
Mon 06:47:31 PM 28.6500 -81.7667 221° Southwest 110 127 6,500 -48 Level Orlando TRACON
Mon 06:48:37 PM 28.6167 -81.8000 221° Southwest 108 124 6,400 -50 Descending Orlando TRACON
Mon 06:49:31 PM 28.6000 -81.8167 221° Southwest 108 124 6,400  Level Orlando TRACON
Mon 06:51:00 PM 28.5559 -81.8608 221° Southwest  Level FlightAware Approximate
Mon 06:58:00 PM 28.3186 -82.1409 229° Southwest  Level FlightAware Approximate
Mon 06:59:00 PM 28.2862 -82.1826 229° Southwest  Level FlightAware Approximate
Mon 07:00:00 PM 28.2538 -82.2242 229° Southwest  Level FlightAware Approximate
Mon 07:01:00 PM 28.2214 -82.2658 229° Southwest  Level FlightAware Approximate
Mon 07:02:00 PM 28.1890 -82.3074 229° Southwest  Level FlightAware Approximate
Mon 07:03:00 PM 28.1566 -82.3489 228° Southwest  Level FlightAware Approximate
Mon 07:04:00 PM 28.1241 -82.3904 228° Southwest  Level FlightAware Approximate
Mon 07:05:00 PM 28.0930 -82.4332 231° Southwest  Level FlightAware Approximate
Mon 07:06:00 PM 28.0622 -82.4763 231° Southwest  Level FlightAware Approximate
Mon 07:07:00 PM 28.0310 -82.5190 221° Southwest  Level FlightAware Approximate
Mon 07:08:00 PM 27.9944 -82.5556 221° Southwest  Level FlightAware Approximate
Mon 07:09:00 PM 27.9627 -82.5976 233° Southwest  Level FlightAware Approximate
Mon 07:10:00 PM 27.9320 -82.6407 230° Southwest  Level FlightAware Approximate
Mon 07:11:00 PM 27.9004 -82.6829 230° Southwest  Level FlightAware Approximate
Mon 07:12:00 PM 27.9000 -82.6833 230° Southwest  Level FlightAware Approximate
Mon 07:13:00 PM 27.9100 -82.6875 230° Southwest  Level Estimated
Mon 07:14:00 PM 27.9100 -82.6875 230° Southwest  Level Estimated
Mon 07:15:00 PM 27.9100 -82.6875 230° Southwest  Level Estimated
Mon 07:16:00 PM 27.9100 -82.6875 230° Southwest  Level Estimated
Mon 07:17:00 PM 27.9100 -82.6875 230° Southwest  Level Estimated
Mon 07:18:00 PM 27.9100 -82.6875 230° Southwest  Level Estimated
Mon 07:19:00 PM 27.9100 -82.6875 230° Southwest  Level Estimated
Mon 07:20:00 PM 27.9100 -82.6875 230° Southwest  Level Estimated
Mon 07:21:00 PM 27.9100 -82.6875 230° Southwest  Level Estimated
Mon 07:22:00 PM 27.9100 -82.6875 230° Southwest  Level Estimated
Mon 07:23:00 PM 27.9100 -82.6875 230° Southwest  Level Estimated
Mon 07:24:00 PM 27.9100 -82.6875 230° Southwest  Level Estimated
Mon 07:25:00 PM 27.9100 -82.6875 230° Southwest  Level Estimated
Mon 07:26:00 PM 27.9100 -82.6875 230° Southwest  Level Estimated
Mon 07:27:00 PM 27.9100 -82.6875 230° Southwest  Level Estimated
Mon 07:28:00 PM 27.9100 -82.6875 230° Southwest  Level Estimated

Login

Don't have an account? Register now (free) for customized features, flight alerts, and more!